sensor_id;sensor_type;location;lat;lon;timestamp;temperature;humidity
18163;DHT22;9206;50.994;4.538;2023-08-17T00:01:55;19.40;99.90
18163;DHT22;9206;50.994;4.538;2023-08-17T00:04:46;19.30;99.90
18163;DHT22;9206;50.994;4.538;2023-08-17T00:07:38;19.30;99.90
18163;DHT22;9206;50.994;4.538;2023-08-17T00:10:25;19.20;99.90
18163;DHT22;9206;50.994;4.538;2023-08-17T00:13:14;19.10;99.90
18163;DHT22;9206;50.994;4.538;2023-08-17T00:16:05;19.00;99.90
18163;DHT22;9206;50.994;4.538;2023-08-17T00:18:55;19.00;99.90
18163;DHT22;9206;50.994;4.538;2023-08-17T00:21:45;18.90;99.90
18163;DHT22;9206;50.994;4.538;2023-08-17T00:24:32;18.90;99.90
18163;DHT22;9206;50.994;4.538;2023-08-17T00:27:20;18.80;99.90
18163;DHT22;9206;50.994;4.538;2023-08-17T00:30:11;18.70;99.90
18163;DHT22;9206;50.994;4.538;2023-08-17T00:33:01;18.70;99.90
18163;DHT22;9206;50.994;4.538;2023-08-17T00:35:52;18.70;99.90
18163;DHT22;9206;50.994;4.538;2023-08-17T00:38:39;18.60;99.90
18163;DHT22;9206;50.994;4.538;2023-08-17T00:41:29;18.50;99.90
18163;DHT22;9206;50.994;4.538;2023-08-17T00:44:20;18.50;99.90
18163;DHT22;9206;50.994;4.538;2023-08-17T00:47:09;18.40;99.90
18163;DHT22;9206;50.994;4.538;2023-08-17T00:49:58;18.40;99.90
18163;DHT22;9206;50.994;4.538;2023-08-17T00:52:48;18.30;99.90
18163;DHT22;9206;50.994;4.538;2023-08-17T00:55:39;18.30;99.90
18163;DHT22;9206;50.994;4.538;2023-08-17T00:58:34;18.30;99.90
18163;DHT22;9206;50.994;4.538;2023-08-17T01:01:24;18.20;99.90
18163;DHT22;9206;50.994;4.538;2023-08-17T01:04:14;18.20;99.90
18163;DHT22;9206;50.994;4.538;2023-08-17T01:07:04;18.20;99.90
18163;DHT22;9206;50.994;4.538;2023-08-17T01:09:54;18.20;99.90
18163;DHT22;9206;50.994;4.538;2023-08-17T01:12:46;18.30;99.90
18163;DHT22;9206;50.994;4.538;2023-08-17T01:15:44;18.30;99.90
18163;DHT22;9206;50.994;4.538;2023-08-17T01:18:35;18.40;99.90
18163;DHT22;9206;50.994;4.538;2023-08-17T01:21:29;18.30;99.90
18163;DHT22;9206;50.994;4.538;2023-08-17T01:24:26;18.40;99.90
18163;DHT22;9206;50.994;4.538;2023-08-17T01:27:20;18.40;99.90
18163;DHT22;9206;50.994;4.538;2023-08-17T01:30:09;18.40;99.90
18163;DHT22;9206;50.994;4.538;2023-08-17T01:33:03;18.40;99.90
18163;DHT22;9206;50.994;4.538;2023-08-17T01:36:03;18.40;99.90
18163;DHT22;9206;50.994;4.538;2023-08-17T01:38:52;18.40;99.90
18163;DHT22;9206;50.994;4.538;2023-08-17T01:41:49;18.30;99.90
18163;DHT22;9206;50.994;4.538;2023-08-17T01:44:38;18.30;99.90
18163;DHT22;9206;50.994;4.538;2023-08-17T01:47:30;18.40;99.90
18163;DHT22;9206;50.994;4.538;2023-08-17T01:50:23;18.40;99.90
18163;DHT22;9206;50.994;4.538;2023-08-17T01:53:11;18.30;99.90
18163;DHT22;9206;50.994;4.538;2023-08-17T01:56:00;18.30;99.90
18163;DHT22;9206;50.994;4.538;2023-08-17T01:58:52;18.30;99.90
18163;DHT22;9206;50.994;4.538;2023-08-17T02:01:43;18.20;99.90
18163;DHT22;9206;50.994;4.538;2023-08-17T02:04:32;18.20;99.90
18163;DHT22;9206;50.994;4.538;2023-08-17T02:07:19;18.20;99.90
18163;DHT22;9206;50.994;4.538;2023-08-17T02:10:07;18.30;99.90
18163;DHT22;9206;50.994;4.538;2023-08-17T02:12:55;18.30;99.90
18163;DHT22;9206;50.994;4.538;2023-08-17T02:15:50;18.20;99.90
18163;DHT22;9206;50.994;4.538;2023-08-17T02:18:38;18.20;99.90
18163;DHT22;9206;50.994;4.538;2023-08-17T02:21:26;18.20;99.90
18163;DHT22;9206;50.994;4.538;2023-08-17T02:24:19;18.20;99.90
18163;DHT22;9206;50.994;4.538;2023-08-17T02:27:08;18.20;99.90
18163;DHT22;9206;50.994;4.538;2023-08-17T02:29:57;18.20;99.90
18163;DHT22;9206;50.994;4.538;2023-08-17T02:32:55;18.20;99.90
18163;DHT22;9206;50.994;4.538;2023-08-17T02:35:42;18.10;99.90
18163;DHT22;9206;50.994;4.538;2023-08-17T02:38:32;18.00;99.90
18163;DHT22;9206;50.994;4.538;2023-08-17T02:41:20;18.00;99.90
18163;DHT22;9206;50.994;4.538;2023-08-17T02:44:09;17.90;99.90
18163;DHT22;9206;50.994;4.538;2023-08-17T02:46:57;17.80;99.90
18163;DHT22;9206;50.994;4.538;2023-08-17T02:49:55;17.80;99.90
18163;DHT22;9206;50.994;4.538;2023-08-17T02:52:45;17.70;99.90
18163;DHT22;9206;50.994;4.538;2023-08-17T02:55:35;17.60;99.90
18163;DHT22;9206;50.994;4.538;2023-08-17T02:58:33;17.60;99.90
18163;DHT22;9206;50.994;4.538;2023-08-17T03:01:27;17.50;99.90
18163;DHT22;9206;50.994;4.538;2023-08-17T03:04:21;17.40;99.90
18163;DHT22;9206;50.994;4.538;2023-08-17T03:07:11;17.40;99.90
18163;DHT22;9206;50.994;4.538;2023-08-17T03:10:05;17.30;99.90
18163;DHT22;9206;50.994;4.538;2023-08-17T03:13:00;17.30;99.90
18163;DHT22;9206;50.994;4.538;2023-08-17T03:15:53;17.30;99.90
18163;DHT22;9206;50.994;4.538;2023-08-17T03:18:42;17.30;99.90
18163;DHT22;9206;50.994;4.538;2023-08-17T03:21:32;17.30;99.90
18163;DHT22;9206;50.994;4.538;2023-08-17T03:24:28;17.30;99.90
18163;DHT22;9206;50.994;4.538;2023-08-17T03:27:18;17.30;99.90
18163;DHT22;9206;50.994;4.538;2023-08-17T03:30:12;17.30;99.90
18163;DHT22;9206;50.994;4.538;2023-08-17T03:36:34;17.30;99.90
18163;DHT22;9206;50.994;4.538;2023-08-17T03:39:32;17.30;99.90
18163;DHT22;9206;50.994;4.538;2023-08-17T03:42:22;17.30;99.90
18163;DHT22;9206;50.994;4.538;2023-08-17T03:45:15;17.40;99.90
18163;DHT22;9206;50.994;4.538;2023-08-17T03:48:11;17.40;99.90
18163;DHT22;9206;50.994;4.538;2023-08-17T03:51:10;17.40;99.90
18163;DHT22;9206;50.994;4.538;2023-08-17T03:53:58;17.50;99.90
18163;DHT22;9206;50.994;4.538;2023-08-17T03:56:49;17.50;99.90
18163;DHT22;9206;50.994;4.538;2023-08-17T03:59:36;17.50;99.90
18163;DHT22;9206;50.994;4.538;2023-08-17T04:02:26;17.50;99.90
18163;DHT22;9206;50.994;4.538;2023-08-17T04:05:14;17.50;99.90
18163;DHT22;9206;50.994;4.538;2023-08-17T04:08:02;17.60;99.90
18163;DHT22;9206;50.994;4.538;2023-08-17T04:10:52;17.60;99.90
18163;DHT22;9206;50.994;4.538;2023-08-17T04:13:41;17.50;99.90
18163;DHT22;9206;50.994;4.538;2023-08-17T04:16:28;17.50;99.90
18163;DHT22;9206;50.994;4.538;2023-08-17T04:19:22;17.60;99.90
18163;DHT22;9206;50.994;4.538;2023-08-17T04:22:13;17.60;99.90
18163;DHT22;9206;50.994;4.538;2023-08-17T04:25:07;17.60;99.90
18163;DHT22;9206;50.994;4.538;2023-08-17T04:28:03;17.60;99.90
18163;DHT22;9206;50.994;4.538;2023-08-17T04:30:52;17.60;99.90
18163;DHT22;9206;50.994;4.538;2023-08-17T04:33:40;17.70;99.90
18163;DHT22;9206;50.994;4.538;2023-08-17T04:36:43;17.60;99.90
18163;DHT22;9206;50.994;4.538;2023-08-17T04:39:39;17.60;99.90
18163;DHT22;9206;50.994;4.538;2023-08-17T04:42:41;17.60;99.90
18163;DHT22;9206;50.994;4.538;2023-08-17T04:45:30;17.60;99.90
18163;DHT22;9206;50.994;4.538;2023-08-17T04:48:19;17.60;99.90
18163;DHT22;9206;50.994;4.538;2023-08-17T04:51:14;17.60;99.90
18163;DHT22;9206;50.994;4.538;2023-08-17T04:54:06;17.70;99.90
18163;DHT22;9206;50.994;4.538;2023-08-17T04:56:59;17.70;99.90
18163;DHT22;9206;50.994;4.538;2023-08-17T04:59:48;17.70;99.90
18163;DHT22;9206;50.994;4.538;2023-08-17T05:02:39;17.70;99.90
18163;DHT22;9206;50.994;4.538;2023-08-17T05:05:32;17.70;99.90
18163;DHT22;9206;50.994;4.538;2023-08-17T05:08:21;17.70;99.90
18163;DHT22;9206;50.994;4.538;2023-08-17T05:11:15;17.80;99.90
18163;DHT22;9206;50.994;4.538;2023-08-17T05:14:03;17.80;99.90
18163;DHT22;9206;50.994;4.538;2023-08-17T05:16:53;17.80;99.90
18163;DHT22;9206;50.994;4.538;2023-08-17T05:19:44;17.80;99.90
18163;DHT22;9206;50.994;4.538;2023-08-17T05:22:34;17.80;99.90
18163;DHT22;9206;50.994;4.538;2023-08-17T05:25:31;17.70;99.90
18163;DHT22;9206;50.994;4.538;2023-08-17T05:28:21;17.80;99.90
18163;DHT22;9206;50.994;4.538;2023-08-17T05:31:15;17.80;99.90
18163;DHT22;9206;50.994;4.538;2023-08-17T05:34:09;17.90;99.90
18163;DHT22;9206;50.994;4.538;2023-08-17T05:37:03;17.80;99.90
18163;DHT22;9206;50.994;4.538;2023-08-17T05:39:58;17.90;99.90
18163;DHT22;9206;50.994;4.538;2023-08-17T05:42:51;17.90;99.90
18163;DHT22;9206;50.994;4.538;2023-08-17T05:45:39;18.00;99.90
18163;DHT22;9206;50.994;4.538;2023-08-17T05:48:29;18.00;99.90
18163;DHT22;9206;50.994;4.538;2023-08-17T05:51:23;18.20;99.90
18163;DHT22;9206;50.994;4.538;2023-08-17T05:54:11;18.20;99.90
18163;DHT22;9206;50.994;4.538;2023-08-17T05:57:03;18.20;99.90
18163;DHT22;9206;50.994;4.538;2023-08-17T05:59:56;18.20;99.90
18163;DHT22;9206;50.994;4.538;2023-08-17T06:02:45;18.20;99.90
18163;DHT22;9206;50.994;4.538;2023-08-17T06:05:39;18.30;99.90
18163;DHT22;9206;50.994;4.538;2023-08-17T06:08:30;18.40;99.90
18163;DHT22;9206;50.994;4.538;2023-08-17T06:11:17;18.40;99.90
18163;DHT22;9206;50.994;4.538;2023-08-17T06:14:06;18.40;99.90
18163;DHT22;9206;50.994;4.538;2023-08-17T06:16:54;18.40;99.90
18163;DHT22;9206;50.994;4.538;2023-08-17T06:19:42;18.40;99.90
18163;DHT22;9206;50.994;4.538;2023-08-17T06:22:31;18.40;99.90
18163;DHT22;9206;50.994;4.538;2023-08-17T06:25:41;18.40;99.90
18163;DHT22;9206;50.994;4.538;2023-08-17T06:28:31;18.50;99.90
18163;DHT22;9206;50.994;4.538;2023-08-17T06:31:20;18.60;99.90
18163;DHT22;9206;50.994;4.538;2023-08-17T06:34:14;18.60;99.90
18163;DHT22;9206;50.994;4.538;2023-08-17T06:37:03;18.60;99.90
18163;DHT22;9206;50.994;4.538;2023-08-17T06:39:57;18.70;99.90
18163;DHT22;9206;50.994;4.538;2023-08-17T06:42:46;18.60;99.90
18163;DHT22;9206;50.994;4.538;2023-08-17T06:45:35;18.40;99.90
18163;DHT22;9206;50.994;4.538;2023-08-17T06:48:27;18.30;99.90
18163;DHT22;9206;50.994;4.538;2023-08-17T06:51:16;18.20;99.90
18163;DHT22;9206;50.994;4.538;2023-08-17T06:54:09;18.10;99.90
18163;DHT22;9206;50.994;4.538;2023-08-17T06:56:58;18.10;99.90
18163;DHT22;9206;50.994;4.538;2023-08-17T06:59:47;18.00;99.90
18163;DHT22;9206;50.994;4.538;2023-08-17T07:02:36;18.10;99.90
18163;DHT22;9206;50.994;4.538;2023-08-17T07:05:25;18.20;99.90
18163;DHT22;9206;50.994;4.538;2023-08-17T07:08:14;18.20;99.90
18163;DHT22;9206;50.994;4.538;2023-08-17T07:11:04;18.20;99.90
18163;DHT22;9206;50.994;4.538;2023-08-17T07:13:54;18.30;99.90
18163;DHT22;9206;50.994;4.538;2023-08-17T07:16:43;18.30;99.90
18163;DHT22;9206;50.994;4.538;2023-08-17T07:19:38;18.40;99.90
18163;DHT22;9206;50.994;4.538;2023-08-17T07:22:30;18.50;99.90
18163;DHT22;9206;50.994;4.538;2023-08-17T07:25:24;18.70;99.90
18163;DHT22;9206;50.994;4.538;2023-08-17T07:28:17;18.80;99.90
18163;DHT22;9206;50.994;4.538;2023-08-17T07:31:08;19.10;99.90
18163;DHT22;9206;50.994;4.538;2023-08-17T07:33:58;19.10;99.90
18163;DHT22;9206;50.994;4.538;2023-08-17T07:36:52;19.30;99.90
18163;DHT22;9206;50.994;4.538;2023-08-17T07:39:44;19.50;99.90
18163;DHT22;9206;50.994;4.538;2023-08-17T07:42:37;19.60;99.90
18163;DHT22;9206;50.994;4.538;2023-08-17T07:45:26;19.70;99.90
18163;DHT22;9206;50.994;4.538;2023-08-17T07:48:14;19.60;99.90
18163;DHT22;9206;50.994;4.538;2023-08-17T07:51:02;19.70;99.90
18163;DHT22;9206;50.994;4.538;2023-08-17T07:53:50;19.70;99.90
18163;DHT22;9206;50.994;4.538;2023-08-17T07:56:39;19.70;99.90
18163;DHT22;9206;50.994;4.538;2023-08-17T07:59:27;19.60;99.90
18163;DHT22;9206;50.994;4.538;2023-08-17T08:02:16;19.50;99.90
18163;DHT22;9206;50.994;4.538;2023-08-17T08:05:07;19.40;99.90
18163;DHT22;9206;50.994;4.538;2023-08-17T08:07:57;19.50;99.90
18163;DHT22;9206;50.994;4.538;2023-08-17T08:10:53;19.70;99.90
18163;DHT22;9206;50.994;4.538;2023-08-17T08:13:44;19.60;99.90
18163;DHT22;9206;50.994;4.538;2023-08-17T08:16:41;19.70;99.90
18163;DHT22;9206;50.994;4.538;2023-08-17T08:19:33;19.70;99.90
18163;DHT22;9206;50.994;4.538;2023-08-17T08:22:23;19.70;99.90
18163;DHT22;9206;50.994;4.538;2023-08-17T08:25:12;19.80;99.90
18163;DHT22;9206;50.994;4.538;2023-08-17T08:28:03;19.80;99.90
18163;DHT22;9206;50.994;4.538;2023-08-17T08:30:52;19.90;99.90
18163;DHT22;9206;50.994;4.538;2023-08-17T08:33:42;19.90;99.90
18163;DHT22;9206;50.994;4.538;2023-08-17T08:36:32;19.90;99.90
18163;DHT22;9206;50.994;4.538;2023-08-17T08:39:25;20.10;99.90
18163;DHT22;9206;50.994;4.538;2023-08-17T08:42:16;20.00;99.90
18163;DHT22;9206;50.994;4.538;2023-08-17T08:45:15;20.00;99.90
18163;DHT22;9206;50.994;4.538;2023-08-17T08:48:13;20.00;99.90
18163;DHT22;9206;50.994;4.538;2023-08-17T08:51:10;20.00;99.90
18163;DHT22;9206;50.994;4.538;2023-08-17T08:54:02;20.10;99.90
18163;DHT22;9206;50.994;4.538;2023-08-17T08:56:59;20.30;99.90
18163;DHT22;9206;50.994;4.538;2023-08-17T08:59:49;20.40;99.90
18163;DHT22;9206;50.994;4.538;2023-08-17T09:02:38;20.60;99.90
18163;DHT22;9206;50.994;4.538;2023-08-17T09:05:48;20.70;99.90
18163;DHT22;9206;50.994;4.538;2023-08-17T09:08:41;20.80;99.90
18163;DHT22;9206;50.994;4.538;2023-08-17T09:11:32;20.60;99.90
18163;DHT22;9206;50.994;4.538;2023-08-17T09:14:28;20.60;99.90
18163;DHT22;9206;50.994;4.538;2023-08-17T09:17:32;20.60;99.90
18163;DHT22;9206;50.994;4.538;2023-08-17T09:20:39;20.80;99.90
18163;DHT22;9206;50.994;4.538;2023-08-17T09:23:29;21.00;99.90
18163;DHT22;9206;50.994;4.538;2023-08-17T09:26:19;20.90;99.90
18163;DHT22;9206;50.994;4.538;2023-08-17T09:29:17;21.00;99.90
18163;DHT22;9206;50.994;4.538;2023-08-17T09:32:08;21.10;99.90
18163;DHT22;9206;50.994;4.538;2023-08-17T09:34:57;21.30;99.90
18163;DHT22;9206;50.994;4.538;2023-08-17T09:37:44;21.40;99.90
18163;DHT22;9206;50.994;4.538;2023-08-17T09:40:39;21.70;99.90
18163;DHT22;9206;50.994;4.538;2023-08-17T09:43:30;21.90;99.90
18163;DHT22;9206;50.994;4.538;2023-08-17T09:46:22;22.10;99.90
18163;DHT22;9206;50.994;4.538;2023-08-17T09:49:14;22.50;99.90
18163;DHT22;9206;50.994;4.538;2023-08-17T09:52:02;22.40;99.90
18163;DHT22;9206;50.994;4.538;2023-08-17T09:54:52;22.30;99.90
18163;DHT22;9206;50.994;4.538;2023-08-17T09:57:45;22.50;99.90
18163;DHT22;9206;50.994;4.538;2023-08-17T10:00:39;22.30;99.90
18163;DHT22;9206;50.994;4.538;2023-08-17T10:03:42;22.20;99.90
18163;DHT22;9206;50.994;4.538;2023-08-17T10:06:33;22.20;99.90
18163;DHT22;9206;50.994;4.538;2023-08-17T10:09:42;22.30;99.90
18163;DHT22;9206;50.994;4.538;2023-08-17T10:12:49;22.40;99.90
18163;DHT22;9206;50.994;4.538;2023-08-17T10:15:47;22.40;99.90
18163;DHT22;9206;50.994;4.538;2023-08-17T10:18:59;22.30;99.90
18163;DHT22;9206;50.994;4.538;2023-08-17T11:10:11;22.10;99.90
18163;DHT22;9206;50.994;4.538;2023-08-17T11:19:01;22.20;99.90
18163;DHT22;9206;50.994;4.538;2023-08-17T11:21:54;22.30;99.90
18163;DHT22;9206;50.994;4.538;2023-08-17T11:24:58;22.50;99.90
18163;DHT22;9206;50.994;4.538;2023-08-17T11:27:52;22.60;99.90
18163;DHT22;9206;50.994;4.538;2023-08-17T11:37:45;22.60;99.90
18163;DHT22;9206;50.994;4.538;2023-08-17T11:43:15;22.40;99.90
18163;DHT22;9206;50.994;4.538;2023-08-17T11:48:38;22.20;99.90
18163;DHT22;9206;50.994;4.538;2023-08-17T11:51:29;22.30;99.90
18163;DHT22;9206;50.994;4.538;2023-08-17T11:54:24;22.50;99.90
18163;DHT22;9206;50.994;4.538;2023-08-17T11:57:13;22.60;99.90
18163;DHT22;9206;50.994;4.538;2023-08-17T12:00:16;22.40;99.90
18163;DHT22;9206;50.994;4.538;2023-08-17T12:03:15;22.40;99.90
18163;DHT22;9206;50.994;4.538;2023-08-17T12:06:13;22.30;99.90
18163;DHT22;9206;50.994;4.538;2023-08-17T12:09:06;22.30;99.90
18163;DHT22;9206;50.994;4.538;2023-08-17T12:12:09;22.40;99.90
18163;DHT22;9206;50.994;4.538;2023-08-17T12:15:38;22.60;99.90
18163;DHT22;9206;50.994;4.538;2023-08-17T12:18:57;22.60;99.90
18163;DHT22;9206;50.994;4.538;2023-08-17T12:21:53;22.30;99.90
18163;DHT22;9206;50.994;4.538;2023-08-17T12:24:51;22.40;99.90
18163;DHT22;9206;50.994;4.538;2023-08-17T12:27:43;22.60;99.90
18163;DHT22;9206;50.994;4.538;2023-08-17T12:30:40;22.70;99.90
18163;DHT22;9206;50.994;4.538;2023-08-17T12:33:27;22.70;99.90
18163;DHT22;9206;50.994;4.538;2023-08-17T12:36:16;22.70;99.90
18163;DHT22;9206;50.994;4.538;2023-08-17T12:39:07;23.10;99.90
18163;DHT22;9206;50.994;4.538;2023-08-17T12:41:58;23.40;99.90
18163;DHT22;9206;50.994;4.538;2023-08-17T12:45:22;23.50;99.90
18163;DHT22;9206;50.994;4.538;2023-08-17T12:48:15;23.60;99.90
18163;DHT22;9206;50.994;4.538;2023-08-17T12:51:03;23.70;99.90
18163;DHT22;9206;50.994;4.538;2023-08-17T12:53:56;23.70;99.90
18163;DHT22;9206;50.994;4.538;2023-08-17T12:56:50;23.60;99.90
18163;DHT22;9206;50.994;4.538;2023-08-17T12:59:41;23.60;99.90
18163;DHT22;9206;50.994;4.538;2023-08-17T13:02:33;23.80;99.90
18163;DHT22;9206;50.994;4.538;2023-08-17T13:05:28;24.10;99.90
18163;DHT22;9206;50.994;4.538;2023-08-17T13:08:19;24.20;99.90
18163;DHT22;9206;50.994;4.538;2023-08-17T13:11:25;24.30;99.90
18163;DHT22;9206;50.994;4.538;2023-08-17T13:14:24;24.10;99.90
18163;DHT22;9206;50.994;4.538;2023-08-17T13:17:24;23.80;99.90
18163;DHT22;9206;50.994;4.538;2023-08-17T13:20:34;23.70;99.90
18163;DHT22;9206;50.994;4.538;2023-08-17T13:23:38;23.50;99.90
18163;DHT22;9206;50.994;4.538;2023-08-17T13:26:40;23.30;99.90
18163;DHT22;9206;50.994;4.538;2023-08-17T13:29:29;23.30;99.90
18163;DHT22;9206;50.994;4.538;2023-08-17T13:32:37;23.20;99.90
18163;DHT22;9206;50.994;4.538;2023-08-17T13:35:50;23.30;99.90
18163;DHT22;9206;50.994;4.538;2023-08-17T13:38:56;23.50;99.90
18163;DHT22;9206;50.994;4.538;2023-08-17T13:41:53;23.50;99.90
18163;DHT22;9206;50.994;4.538;2023-08-17T13:44:44;23.60;99.90
18163;DHT22;9206;50.994;4.538;2023-08-17T13:47:33;23.70;99.90
18163;DHT22;9206;50.994;4.538;2023-08-17T13:50:29;23.60;99.90
18163;DHT22;9206;50.994;4.538;2023-08-17T13:53:19;23.70;99.90
18163;DHT22;9206;50.994;4.538;2023-08-17T13:56:16;23.70;99.90
18163;DHT22;9206;50.994;4.538;2023-08-17T13:59:13;23.70;99.90
18163;DHT22;9206;50.994;4.538;2023-08-17T14:02:07;23.70;99.90
18163;DHT22;9206;50.994;4.538;2023-08-17T14:05:08;23.80;99.90
18163;DHT22;9206;50.994;4.538;2023-08-17T14:08:02;24.20;99.90
18163;DHT22;9206;50.994;4.538;2023-08-17T14:10:57;24.10;99.90
18163;DHT22;9206;50.994;4.538;2023-08-17T14:13:47;24.20;99.90
18163;DHT22;9206;50.994;4.538;2023-08-17T14:16:36;23.80;99.90
18163;DHT22;9206;50.994;4.538;2023-08-17T14:19:26;23.60;99.90
18163;DHT22;9206;50.994;4.538;2023-08-17T14:22:21;23.70;99.90
18163;DHT22;9206;50.994;4.538;2023-08-17T14:25:11;23.80;99.90
18163;DHT22;9206;50.994;4.538;2023-08-17T14:28:07;23.80;99.90
18163;DHT22;9206;50.994;4.538;2023-08-17T14:30:56;23.70;99.90
18163;DHT22;9206;50.994;4.538;2023-08-17T14:33:47;23.50;99.90
18163;DHT22;9206;50.994;4.538;2023-08-17T14:36:58;23.50;99.90
18163;DHT22;9206;50.994;4.538;2023-08-17T14:40:00;23.50;99.90
18163;DHT22;9206;50.994;4.538;2023-08-17T14:42:49;23.40;99.90
18163;DHT22;9206;50.994;4.538;2023-08-17T14:45:41;23.40;99.90
18163;DHT22;9206;50.994;4.538;2023-08-17T14:48:35;23.30;99.90
18163;DHT22;9206;50.994;4.538;2023-08-17T14:51:25;23.00;99.90
18163;DHT22;9206;50.994;4.538;2023-08-17T14:54:19;22.80;99.90
18163;DHT22;9206;50.994;4.538;2023-08-17T14:57:27;22.90;99.90
18163;DHT22;9206;50.994;4.538;2023-08-17T15:00:44;22.80;99.90
18163;DHT22;9206;50.994;4.538;2023-08-17T15:03:35;22.70;99.90
18163;DHT22;9206;50.994;4.538;2023-08-17T15:06:33;22.80;99.90
18163;DHT22;9206;50.994;4.538;2023-08-17T15:09:24;22.80;99.90
18163;DHT22;9206;50.994;4.538;2023-08-17T15:12:16;22.80;99.90
18163;DHT22;9206;50.994;4.538;2023-08-17T15:15:11;22.80;99.90
18163;DHT22;9206;50.994;4.538;2023-08-17T15:18:07;22.90;99.90
18163;DHT22;9206;50.994;4.538;2023-08-17T15:21:33;23.00;99.90
18163;DHT22;9206;50.994;4.538;2023-08-17T15:24:19;22.90;99.90
18163;DHT22;9206;50.994;4.538;2023-08-17T15:27:23;23.00;99.90
18163;DHT22;9206;50.994;4.538;2023-08-17T15:30:32;23.10;99.90
18163;DHT22;9206;50.994;4.538;2023-08-17T15:33:25;23.10;99.90
18163;DHT22;9206;50.994;4.538;2023-08-17T15:36:28;23.00;99.90
18163;DHT22;9206;50.994;4.538;2023-08-17T15:39:23;23.00;99.90
18163;DHT22;9206;50.994;4.538;2023-08-17T15:42:13;22.80;99.90
18163;DHT22;9206;50.994;4.538;2023-08-17T15:45:08;22.80;99.90
18163;DHT22;9206;50.994;4.538;2023-08-17T15:48:19;22.80;99.90
18163;DHT22;9206;50.994;4.538;2023-08-17T15:51:09;22.60;99.90
18163;DHT22;9206;50.994;4.538;2023-08-17T15:53:58;22.50;99.90
18163;DHT22;9206;50.994;4.538;2023-08-17T15:56:47;22.60;99.90
18163;DHT22;9206;50.994;4.538;2023-08-17T15:59:47;22.80;99.90
18163;DHT22;9206;50.994;4.538;2023-08-17T16:02:41;22.90;99.90
18163;DHT22;9206;50.994;4.538;2023-08-17T16:05:38;22.80;99.90
18163;DHT22;9206;50.994;4.538;2023-08-17T16:08:47;22.70;99.90
18163;DHT22;9206;50.994;4.538;2023-08-17T16:11:53;22.70;99.90
18163;DHT22;9206;50.994;4.538;2023-08-17T16:14:44;22.70;99.90
18163;DHT22;9206;50.994;4.538;2023-08-17T16:17:38;22.80;99.90
18163;DHT22;9206;50.994;4.538;2023-08-17T16:20:49;22.80;99.90
18163;DHT22;9206;50.994;4.538;2023-08-17T16:27:07;22.50;99.90
18163;DHT22;9206;50.994;4.538;2023-08-17T16:29:58;22.40;99.90
18163;DHT22;9206;50.994;4.538;2023-08-17T16:32:49;22.30;99.90
18163;DHT22;9206;50.994;4.538;2023-08-17T16:35:37;22.40;99.90
18163;DHT22;9206;50.994;4.538;2023-08-17T16:38:25;22.50;99.90
18163;DHT22;9206;50.994;4.538;2023-08-17T16:44:51;22.60;99.90
18163;DHT22;9206;50.994;4.538;2023-08-17T16:47:47;22.60;99.90
18163;DHT22;9206;50.994;4.538;2023-08-17T16:50:39;22.50;99.90
18163;DHT22;9206;50.994;4.538;2023-08-17T16:53:26;22.40;99.90
18163;DHT22;9206;50.994;4.538;2023-08-17T16:56:15;22.30;99.90
18163;DHT22;9206;50.994;4.538;2023-08-17T16:59:07;22.20;99.90
18163;DHT22;9206;50.994;4.538;2023-08-17T17:02:06;22.10;99.90
18163;DHT22;9206;50.994;4.538;2023-08-17T17:04:56;22.10;99.90
18163;DHT22;9206;50.994;4.538;2023-08-17T17:07:46;22.10;99.90
18163;DHT22;9206;50.994;4.538;2023-08-17T17:10:38;22.10;99.90
18163;DHT22;9206;50.994;4.538;2023-08-17T17:13:26;22.10;99.90
18163;DHT22;9206;50.994;4.538;2023-08-17T17:16:20;22.00;99.90
18163;DHT22;9206;50.994;4.538;2023-08-17T17:19:15;21.90;99.90
18163;DHT22;9206;50.994;4.538;2023-08-17T17:22:07;21.90;99.90
18163;DHT22;9206;50.994;4.538;2023-08-17T17:25:20;21.90;99.90
18163;DHT22;9206;50.994;4.538;2023-08-17T17:28:12;22.00;99.90
18163;DHT22;9206;50.994;4.538;2023-08-17T17:31:12;22.00;99.90
18163;DHT22;9206;50.994;4.538;2023-08-17T17:34:04;21.90;99.90
18163;DHT22;9206;50.994;4.538;2023-08-17T17:37:10;21.90;99.90
18163;DHT22;9206;50.994;4.538;2023-08-17T17:40:11;21.90;99.90
18163;DHT22;9206;50.994;4.538;2023-08-17T17:43:04;21.80;99.90
18163;DHT22;9206;50.994;4.538;2023-08-17T17:46:00;21.80;99.90
18163;DHT22;9206;50.994;4.538;2023-08-17T17:48:49;21.70;99.90
18163;DHT22;9206;50.994;4.538;2023-08-17T17:51:42;21.70;99.90
18163;DHT22;9206;50.994;4.538;2023-08-17T17:54:38;21.70;99.90
18163;DHT22;9206;50.994;4.538;2023-08-17T17:57:32;21.60;99.90
18163;DHT22;9206;50.994;4.538;2023-08-17T18:00:26;21.60;99.90
18163;DHT22;9206;50.994;4.538;2023-08-17T18:03:18;21.50;99.90
18163;DHT22;9206;50.994;4.538;2023-08-17T18:06:09;21.40;99.90
18163;DHT22;9206;50.994;4.538;2023-08-17T18:09:04;21.40;99.90
18163;DHT22;9206;50.994;4.538;2023-08-17T18:11:58;21.30;99.90
18163;DHT22;9206;50.994;4.538;2023-08-17T18:14:49;21.30;99.90
18163;DHT22;9206;50.994;4.538;2023-08-17T18:17:54;21.20;99.90
18163;DHT22;9206;50.994;4.538;2023-08-17T18:20:48;21.20;99.90
18163;DHT22;9206;50.994;4.538;2023-08-17T18:23:37;21.10;99.90
18163;DHT22;9206;50.994;4.538;2023-08-17T18:26:29;21.00;99.90
18163;DHT22;9206;50.994;4.538;2023-08-17T18:29:18;21.00;99.90
18163;DHT22;9206;50.994;4.538;2023-08-17T18:32:09;20.90;99.90
18163;DHT22;9206;50.994;4.538;2023-08-17T18:34:59;20.90;99.90
18163;DHT22;9206;50.994;4.538;2023-08-17T18:37:53;20.90;99.90
18163;DHT22;9206;50.994;4.538;2023-08-17T18:43:51;20.80;99.90
18163;DHT22;9206;50.994;4.538;2023-08-17T18:46:40;20.70;99.90
18163;DHT22;9206;50.994;4.538;2023-08-17T18:49:28;20.60;99.90
18163;DHT22;9206;50.994;4.538;2023-08-17T18:52:22;20.60;99.90
18163;DHT22;9206;50.994;4.538;2023-08-17T18:55:18;20.60;99.90
18163;DHT22;9206;50.994;4.538;2023-08-17T18:58:17;20.50;99.90
18163;DHT22;9206;50.994;4.538;2023-08-17T19:01:10;20.50;99.90
18163;DHT22;9206;50.994;4.538;2023-08-17T19:04:02;20.50;99.90
18163;DHT22;9206;50.994;4.538;2023-08-17T19:06:53;20.50;99.90
18163;DHT22;9206;50.994;4.538;2023-08-17T19:09:41;20.40;99.90
18163;DHT22;9206;50.994;4.538;2023-08-17T19:12:36;20.40;99.90
18163;DHT22;9206;50.994;4.538;2023-08-17T19:15:24;20.30;99.90
18163;DHT22;9206;50.994;4.538;2023-08-17T19:18:15;20.30;99.90
18163;DHT22;9206;50.994;4.538;2023-08-17T19:21:06;20.30;99.90
18163;DHT22;9206;50.994;4.538;2023-08-17T19:23:59;20.20;99.90
18163;DHT22;9206;50.994;4.538;2023-08-17T19:26:47;20.20;99.90
18163;DHT22;9206;50.994;4.538;2023-08-17T19:29:41;20.10;99.90
18163;DHT22;9206;50.994;4.538;2023-08-17T19:32:29;20.10;99.90
18163;DHT22;9206;50.994;4.538;2023-08-17T19:35:18;20.10;99.90
18163;DHT22;9206;50.994;4.538;2023-08-17T19:38:22;20.10;99.90
18163;DHT22;9206;50.994;4.538;2023-08-17T19:41:09;20.10;99.90
18163;DHT22;9206;50.994;4.538;2023-08-17T19:44:06;20.10;99.90
18163;DHT22;9206;50.994;4.538;2023-08-17T19:46:59;20.00;99.90
18163;DHT22;9206;50.994;4.538;2023-08-17T19:49:47;20.00;99.90
18163;DHT22;9206;50.994;4.538;2023-08-17T19:52:40;20.00;99.90